createdAt,value
2019-01-05T00:04:46.124Z,39.83
2019-01-05T00:10:41.105Z,32.94
2019-01-05T00:16:36.097Z,34.05
2019-01-05T00:22:31.112Z,29.89
2019-01-05T00:28:26.094Z,27.57
2019-01-05T00:34:21.120Z,36.89
2019-01-05T00:40:17.067Z,33.62
2019-01-05T00:46:11.135Z,32.21
2019-01-05T00:52:06.133Z,31.47
2019-01-05T00:58:01.167Z,33.4
2019-01-05T01:03:56.145Z,39.07
2019-01-05T01:09:51.138Z,43.96
2019-01-05T01:15:46.191Z,49.93
2019-01-05T01:21:41.156Z,39.47
2019-01-05T01:27:36.139Z,36.3
2019-01-05T01:33:31.188Z,35.81
2019-01-05T01:39:26.137Z,39.57
2019-01-05T01:45:21.157Z,34.08
2019-01-05T01:51:16.152Z,38.9
2019-01-05T01:57:11.154Z,37.67
2019-01-05T02:03:06.186Z,41.43
2019-01-05T02:09:01.161Z,39
2019-01-05T02:14:56.196Z,30.98
2019-01-05T02:20:51.206Z,36.9
2019-01-05T02:26:46.201Z,35.57
2019-01-05T02:32:41.166Z,33.28
2019-01-05T02:38:36.260Z,41.8
2019-01-05T02:44:31.179Z,35.23
2019-01-05T02:50:26.197Z,36.13
2019-01-05T02:56:21.204Z,35.41
2019-01-05T03:02:16.194Z,34.81
2019-01-05T03:08:11.181Z,37.69
2019-01-05T03:14:06.200Z,43.69
2019-01-05T03:20:01.248Z,32.62
2019-01-05T03:25:56.216Z,30.45
2019-01-05T03:31:51.267Z,33.95
2019-01-05T03:37:46.227Z,31.3
2019-01-05T03:43:41.262Z,30.97
2019-01-05T03:49:36.229Z,38.33
2019-01-05T03:55:31.222Z,41.61
2019-01-05T04:01:26.242Z,36.15
2019-01-05T04:07:21.217Z,36.43
2019-01-05T04:13:16.238Z,38.41
2019-01-05T04:19:11.234Z,36.1
2019-01-05T04:25:06.304Z,35.23
2019-01-05T04:31:01.281Z,38.88
2019-01-05T04:36:56.286Z,33.52
2019-01-05T04:42:51.271Z,36
2019-01-05T04:48:46.286Z,32.33
2019-01-05T04:54:41.261Z,37.34
2019-01-05T05:00:36.261Z,29.67
2019-01-05T05:06:31.324Z,28.15
2019-01-05T05:12:26.312Z,30.86
2019-01-05T05:18:21.259Z,32.24
2019-01-05T05:24:16.317Z,32.82
2019-01-05T05:30:11.266Z,34.95
2019-01-05T05:36:06.329Z,29.76
2019-01-05T05:42:01.284Z,34.35
2019-01-05T05:47:56.319Z,33.87
2019-01-05T05:53:51.278Z,32.4
2019-01-05T05:59:46.352Z,35.03
2019-01-05T06:05:41.279Z,32.33
2019-01-05T06:11:36.315Z,28.93
2019-01-05T06:17:31.271Z,30.3
2019-01-05T06:23:26.320Z,34.99
2019-01-05T06:29:21.296Z,30.96
2019-01-05T06:35:16.283Z,34.32
2019-01-05T06:41:11.324Z,30.03
2019-01-05T06:47:06.312Z,27.05
2019-01-05T06:53:01.351Z,29.81
2019-01-05T06:58:56.322Z,25.39
2019-01-05T07:04:51.295Z,29.54
2019-01-05T07:10:46.299Z,31.84
2019-01-05T07:16:41.313Z,33.04
2019-01-05T07:22:36.364Z,25.8
2019-01-05T07:28:31.323Z,25.57
2019-01-05T07:34:26.346Z,24.3
2019-01-05T07:40:21.380Z,31.85
2019-01-05T07:46:16.344Z,29.14
2019-01-05T07:52:11.374Z,41.52
2019-01-05T07:58:06.355Z,31.26
2019-01-05T08:04:01.353Z,35.58
2019-01-05T08:09:56.344Z,29.83
2019-01-05T08:15:51.394Z,32.65
2019-01-05T08:21:46.367Z,35.9
2019-01-05T08:27:41.364Z,33.83
2019-01-05T08:33:36.365Z,40.15
2019-01-05T08:39:31.365Z,34.07
2019-01-05T08:45:26.410Z,37.71
2019-01-05T08:51:21.381Z,30.94
2019-01-05T08:57:16.394Z,28.68
2019-01-05T09:03:11.355Z,29.7
2019-01-05T09:09:06.382Z,36.99
2019-01-05T09:15:01.385Z,31.04
2019-01-05T09:20:56.441Z,34.04
2019-01-05T09:26:51.398Z,31.5
2019-01-05T09:32:46.388Z,32.97
2019-01-05T09:38:41.375Z,31.75
2019-01-05T09:44:36.413Z,32.19
2019-01-05T09:50:31.416Z,34.7
2019-01-05T09:56:26.416Z,37.43
2019-01-05T10:02:21.451Z,31.83
2019-01-05T10:08:16.453Z,25.9
2019-01-05T10:14:11.428Z,25.69
2019-01-05T10:20:06.439Z,29.21
2019-01-05T10:26:01.427Z,33.1
2019-01-05T10:31:56.441Z,33.7
2019-01-05T10:37:51.430Z,31.76
2019-01-05T10:43:46.437Z,30.65
2019-01-05T10:49:41.421Z,28.83
2019-01-05T10:55:36.434Z,33.93
2019-01-05T11:01:31.458Z,50.19
2019-01-05T11:07:26.440Z,36.61
2019-01-05T11:13:21.449Z,38.85
2019-01-05T11:19:16.457Z,33.92
2019-01-05T11:25:11.500Z,28.95
2019-01-05T11:31:06.479Z,28.24
2019-01-05T11:37:01.559Z,27.73
2019-01-05T11:42:56.493Z,27.53
2019-01-05T11:48:51.513Z,29.42
2019-01-05T11:54:46.509Z,28.55
2019-01-05T12:00:41.479Z,41.02
2019-01-05T12:06:36.471Z,41.4
2019-01-05T12:12:31.516Z,32.83
2019-01-05T12:18:26.468Z,35.15
2019-01-05T12:24:21.526Z,27.8
2019-01-05T12:30:16.496Z,30.4
2019-01-05T12:36:11.496Z,47.9
2019-01-05T12:42:06.498Z,23.38
2019-01-05T12:48:01.490Z,21.57
2019-01-05T12:53:56.537Z,15.91
2019-01-05T12:59:51.514Z,20.79
2019-01-05T13:05:46.495Z,22.84
2019-01-05T13:11:41.524Z,17.59
2019-01-05T13:17:36.518Z,24.77
2019-01-05T13:23:31.543Z,19.39
2019-01-05T13:29:26.518Z,22.5
2019-01-05T13:35:21.526Z,25.17
2019-01-05T13:41:16.529Z,22.75
2019-01-05T13:47:11.552Z,25.93
2019-01-05T13:53:06.581Z,26.22
2019-01-05T13:59:01.571Z,26.52
2019-01-05T14:04:56.566Z,27.73
2019-01-05T14:10:51.829Z,25.56
2019-01-05T14:16:46.588Z,23.17
2019-01-05T14:22:41.560Z,26.26
2019-01-05T14:28:36.575Z,24.2
2019-01-05T14:34:31.637Z,32.06
2019-01-05T14:40:26.561Z,28.86
2019-01-05T14:46:21.547Z,22.9
2019-01-05T14:52:16.551Z,32.13
2019-01-05T14:58:11.561Z,34.9
2019-01-05T15:04:06.587Z,24.25
2019-01-05T15:10:01.571Z,23.23
2019-01-05T15:15:56.572Z,28.9
2019-01-05T15:21:51.580Z,26.99
2019-01-05T15:27:46.584Z,24.88
2019-01-05T15:33:41.632Z,25.96
2019-01-05T15:39:36.651Z,33.64
2019-01-05T15:45:31.605Z,28.49
2019-01-05T15:51:26.609Z,30.31
2019-01-05T15:57:21.612Z,26.62
2019-01-05T16:03:16.593Z,31.09
2019-01-05T16:09:11.629Z,28.35
2019-01-05T16:15:06.683Z,33.49
2019-01-05T16:21:01.605Z,37.13
2019-01-05T16:26:59.125Z,37.15
2019-01-05T16:32:51.641Z,42.24
2019-01-05T16:38:46.626Z,39.96
2019-01-05T16:44:41.654Z,44.94
2019-01-05T16:50:36.622Z,58.01
2019-01-05T16:56:31.634Z,46.03
2019-01-05T17:02:26.677Z,45.96
2019-01-05T17:08:21.664Z,41.57
2019-01-05T17:14:16.638Z,60.43
2019-01-05T17:20:11.686Z,56.45
2019-01-05T17:26:06.654Z,49.21
2019-01-05T17:32:01.668Z,49.03
2019-01-05T17:37:56.672Z,47.83
2019-01-05T17:43:51.663Z,46.99
2019-01-05T17:49:46.655Z,47.32
2019-01-05T17:55:41.688Z,50.06
2019-01-05T18:01:36.696Z,42.72
2019-01-05T18:07:31.659Z,42.17
2019-01-05T18:13:26.733Z,63.4
2019-01-05T18:19:21.724Z,61.59
2019-01-05T18:25:16.717Z,59.38
2019-01-05T18:31:11.684Z,63.92
2019-01-05T18:37:06.721Z,59.45
2019-01-05T18:43:01.685Z,58.73
2019-01-05T18:48:56.697Z,55.46
2019-01-05T18:54:51.777Z,52.7
2019-01-05T19:00:46.733Z,63.57
2019-01-05T19:06:41.742Z,54.92
2019-01-05T19:12:36.699Z,64.39
2019-01-05T19:18:31.750Z,49.66
2019-01-05T19:24:26.748Z,51.89
2019-01-05T19:30:21.705Z,49.86
2019-01-05T19:36:16.718Z,55.77
2019-01-05T19:42:11.728Z,56.46
2019-01-05T19:48:06.717Z,48.3
2019-01-05T19:54:01.767Z,46.67
2019-01-05T19:59:56.765Z,47.8
2019-01-05T20:05:51.737Z,51.47
2019-01-05T20:11:46.781Z,48.64
2019-01-05T20:17:41.746Z,47.98
2019-01-05T20:23:36.765Z,49.42
2019-01-05T20:29:31.792Z,46.3
2019-01-05T20:35:26.746Z,48.56
2019-01-05T20:41:21.752Z,46.11
2019-01-05T20:47:16.802Z,51.39
2019-01-05T20:53:11.749Z,44.91
2019-01-05T20:59:06.776Z,43.6
2019-01-05T21:05:01.863Z,40.99
2019-01-05T21:10:56.775Z,41.46
2019-01-05T21:16:51.801Z,45.76
2019-01-05T21:22:46.776Z,40.19
2019-01-05T21:28:41.776Z,47.08
2019-01-05T21:34:36.788Z,49.98
2019-01-05T21:40:31.785Z,44.29
2019-01-05T21:46:26.777Z,49.99
2019-01-05T21:52:21.809Z,55.47
2019-01-05T21:58:16.779Z,46.74
2019-01-05T22:04:11.820Z,50.95
2019-01-05T22:10:06.794Z,46.57
2019-01-05T22:16:01.810Z,54.21
2019-01-05T22:21:56.811Z,39.93
2019-01-05T22:27:51.812Z,57.49
2019-01-05T22:33:46.835Z,43.79
2019-01-05T22:39:41.809Z,49.67
2019-01-05T22:45:36.838Z,57.13
2019-01-05T22:51:31.815Z,55.02
2019-01-05T22:57:26.851Z,50.81
2019-01-05T23:03:21.826Z,46.61
2019-01-05T23:09:16.850Z,48.83
2019-01-05T23:15:11.869Z,44.45
2019-01-05T23:21:06.830Z,44.06
2019-01-05T23:27:01.859Z,46.8
2019-01-05T23:32:56.821Z,46.19
2019-01-05T23:38:51.852Z,50.43
2019-01-05T23:44:46.867Z,39.7
2019-01-05T23:50:41.916Z,46.74
2019-01-05T23:56:36.916Z,42.34
